createdAt,value
2019-03-22T00:00:14.817Z,21.20
2019-03-22T00:02:43.252Z,23.00
2019-03-22T00:05:11.717Z,21.47
2019-03-22T00:07:40.155Z,21.37
2019-03-22T00:10:08.985Z,21.50
2019-03-22T00:12:37.404Z,20.90
2019-03-22T00:15:07.855Z,21.67
2019-03-22T00:17:36.274Z,21.13
2019-03-22T00:20:06.769Z,19.97
2019-03-22T00:22:35.199Z,20.97
2019-03-22T00:25:05.603Z,21.03
2019-03-22T00:27:34.107Z,21.20
2019-03-22T00:30:02.588Z,20.00
2019-03-22T00:32:31.006Z,18.77
2019-03-22T00:34:59.413Z,19.60
2019-03-22T00:37:27.850Z,19.50
2019-03-22T00:39:56.286Z,17.03
2019-03-22T00:42:24.691Z,16.83
2019-03-22T00:44:53.110Z,17.90
2019-03-22T00:47:21.518Z,19.10
2019-03-22T00:49:49.925Z,18.10
2019-03-22T00:52:18.350Z,17.47
2019-03-22T00:54:46.787Z,17.77
2019-03-22T00:57:15.209Z,17.13
2019-03-22T00:59:43.687Z,16.53
2019-03-22T01:02:12.109Z,16.90
2019-03-22T01:04:40.588Z,17.40
2019-03-22T01:07:09.087Z,16.97
2019-03-22T01:09:37.522Z,16.17
2019-03-22T01:12:06.014Z,15.00
2019-03-22T01:14:34.486Z,16.63
2019-03-22T01:17:03.050Z,17.43
2019-03-22T01:19:31.457Z,17.70
2019-03-22T01:21:59.867Z,18.03
2019-03-22T01:24:31.160Z,16.60
2019-03-22T01:26:59.616Z,17.43
2019-03-22T01:29:28.090Z,17.53
2019-03-22T01:31:56.511Z,18.67
2019-03-22T01:34:24.910Z,18.40
2019-03-22T01:36:53.597Z,19.50
2019-03-22T01:39:22.130Z,18.77
2019-03-22T01:41:50.586Z,18.13
2019-03-22T01:44:18.991Z,16.90
2019-03-22T01:46:47.403Z,17.00
2019-03-22T01:49:15.826Z,18.00
2019-03-22T01:51:44.229Z,16.97
2019-03-22T01:54:12.635Z,18.67
2019-03-22T01:56:41.087Z,17.90
2019-03-22T01:59:09.526Z,18.20
2019-03-22T02:01:37.920Z,18.33
2019-03-22T02:04:06.330Z,17.10
2019-03-22T02:06:34.746Z,16.80
2019-03-22T02:09:03.838Z,16.70
2019-03-22T02:11:32.259Z,15.73
2019-03-22T02:14:00.681Z,17.90
2019-03-22T02:16:29.092Z,16.90
2019-03-22T02:18:57.496Z,19.77
2019-03-22T02:21:25.914Z,19.30
2019-03-22T02:23:54.315Z,17.87
2019-03-22T02:26:22.713Z,19.00
2019-03-22T02:28:51.115Z,19.63
2019-03-22T02:34:07.429Z,18.60
2019-03-22T02:36:35.850Z,18.70
2019-03-22T02:39:06.204Z,19.90
2019-03-22T02:41:34.703Z,18.17
2019-03-22T02:44:03.162Z,19.20
2019-03-22T02:46:31.551Z,18.13
2019-03-22T02:48:59.964Z,17.17
2019-03-22T02:51:28.413Z,19.30
2019-03-22T02:53:56.796Z,16.80
2019-03-22T02:56:25.230Z,17.87
2019-03-22T02:58:53.615Z,19.50
2019-03-22T03:01:22.136Z,16.80
2019-03-22T03:03:50.535Z,18.13
2019-03-22T03:06:18.960Z,17.87
2019-03-22T03:08:47.346Z,17.50
2019-03-22T03:11:15.744Z,16.13
2019-03-22T03:13:44.190Z,17.17
2019-03-22T03:16:12.613Z,17.63
2019-03-22T03:18:41.010Z,17.80
2019-03-22T03:21:09.502Z,16.83
2019-03-22T03:23:37.983Z,17.73
2019-03-22T03:26:06.529Z,17.77
2019-03-22T03:28:37.233Z,17.97
2019-03-22T03:31:05.157Z,15.53
2019-03-22T03:33:35.644Z,17.10
2019-03-22T03:36:03.910Z,16.93
2019-03-22T03:38:32.405Z,17.40
2019-03-22T03:41:00.807Z,17.30
2019-03-22T03:43:29.227Z,16.40
2019-03-22T03:45:57.630Z,16.37
2019-03-22T03:48:26.060Z,16.87
2019-03-22T03:50:54.487Z,18.47
2019-03-22T03:53:22.929Z,16.10
2019-03-22T03:55:51.396Z,16.60
2019-03-22T03:58:19.830Z,15.77
2019-03-22T04:00:48.242Z,14.40
2019-03-22T04:03:16.646Z,16.27
2019-03-22T04:05:45.068Z,16.50
2019-03-22T04:08:13.472Z,15.10
2019-03-22T04:10:41.886Z,15.77
2019-03-22T04:13:10.281Z,15.37
2019-03-22T04:15:38.718Z,16.53
2019-03-22T04:18:07.119Z,16.07
2019-03-22T04:20:35.565Z,17.00
2019-03-22T04:23:04.033Z,15.67
2019-03-22T04:25:32.541Z,16.90
2019-03-22T04:28:00.977Z,15.50
2019-03-22T04:30:29.403Z,15.40
2019-03-22T04:32:57.849Z,16.30
2019-03-22T04:35:26.227Z,15.40
2019-03-22T04:37:54.619Z,15.57
2019-03-22T04:40:32.085Z,15.80
2019-03-22T04:43:00.511Z,14.90
2019-03-22T04:45:31.561Z,16.20
2019-03-22T04:48:08.798Z,15.50
2019-03-22T04:50:40.522Z,15.53
2019-03-22T04:53:11.978Z,16.20
2019-03-22T04:55:43.584Z,15.63
2019-03-22T04:58:14.437Z,15.97
2019-03-22T05:00:43.670Z,14.33
2019-03-22T05:03:13.435Z,15.10
2019-03-22T05:05:42.988Z,15.47
2019-03-22T05:08:11.534Z,15.20
2019-03-22T05:10:40.397Z,15.50
2019-03-22T05:13:11.515Z,15.03
2019-03-22T05:15:40.765Z,13.60
2019-03-22T05:18:09.525Z,15.17
2019-03-22T05:20:39.974Z,14.60
2019-03-22T05:23:09.617Z,16.07
2019-03-22T05:25:38.673Z,15.33
2019-03-22T05:28:09.534Z,14.50
2019-03-22T05:31:05.204Z,14.60
2019-03-22T05:33:33.591Z,14.00
2019-03-22T05:36:02.034Z,14.50
2019-03-22T05:38:30.449Z,14.43
2019-03-22T05:40:58.870Z,15.67
2019-03-22T05:43:27.430Z,16.80
2019-03-22T05:45:55.919Z,14.77
2019-03-22T05:48:24.333Z,15.60
2019-03-22T05:50:52.741Z,14.70
2019-03-22T05:53:21.232Z,15.70
2019-03-22T05:55:49.647Z,15.77
2019-03-22T05:58:18.260Z,14.90
2019-03-22T06:00:46.665Z,15.17
2019-03-22T06:03:15.163Z,15.83
2019-03-22T06:05:43.583Z,14.63
2019-03-22T06:08:12.091Z,14.10
2019-03-22T06:10:40.529Z,13.67
2019-03-22T06:13:08.937Z,13.67
2019-03-22T06:15:37.432Z,13.50
2019-03-22T06:18:05.873Z,14.70
2019-03-22T06:20:34.298Z,14.57
2019-03-22T06:23:02.690Z,14.17
2019-03-22T06:25:31.123Z,15.13
2019-03-22T06:27:59.524Z,13.73
2019-03-22T06:30:27.936Z,13.70
2019-03-22T06:32:56.376Z,14.00
2019-03-22T06:35:24.842Z,15.10
2019-03-22T06:37:53.270Z,14.17
2019-03-22T06:40:21.748Z,15.60
2019-03-22T06:42:50.153Z,14.27
2019-03-22T06:45:18.558Z,14.63
2019-03-22T06:47:46.990Z,14.43
2019-03-22T06:50:15.469Z,14.70
2019-03-22T06:52:43.914Z,14.70
2019-03-22T06:55:12.462Z,14.10
2019-03-22T06:57:40.950Z,14.30
2019-03-22T07:00:12.054Z,15.57
2019-03-22T07:02:40.431Z,14.53
2019-03-22T07:05:08.940Z,14.20
2019-03-22T07:07:37.347Z,15.00
2019-03-22T07:10:06.987Z,15.90
2019-03-22T07:12:35.483Z,14.33
2019-03-22T07:15:06.173Z,14.67
2019-03-22T07:17:34.670Z,14.70
2019-03-22T07:20:03.249Z,14.83
2019-03-22T07:22:31.677Z,14.83
2019-03-22T07:25:00.266Z,15.70
2019-03-22T07:27:28.789Z,15.33
2019-03-22T07:29:57.243Z,15.53
2019-03-22T07:32:25.658Z,16.60
2019-03-22T07:34:54.234Z,17.17
2019-03-22T07:37:22.657Z,16.40
2019-03-22T07:39:51.093Z,17.00
2019-03-22T07:42:19.508Z,16.43
2019-03-22T07:44:47.910Z,14.87
2019-03-22T07:47:16.366Z,16.37
2019-03-22T07:49:44.767Z,15.93
2019-03-22T07:52:13.201Z,16.13
2019-03-22T07:54:41.695Z,16.57
2019-03-22T07:57:10.135Z,16.40
2019-03-22T07:59:38.548Z,17.00
2019-03-22T08:02:08.000Z,16.30
2019-03-22T08:04:36.446Z,16.83
2019-03-22T08:07:04.907Z,17.53
2019-03-22T08:09:33.339Z,17.00
2019-03-22T08:12:02.174Z,15.90
2019-03-22T08:14:30.567Z,15.40
2019-03-22T08:16:58.991Z,17.50
2019-03-22T08:19:27.444Z,20.10
2019-03-22T08:21:55.817Z,17.90
2019-03-22T08:24:24.253Z,16.90
2019-03-22T08:26:52.664Z,16.67
2019-03-22T08:29:21.077Z,15.57
2019-03-22T08:31:49.569Z,14.07
2019-03-22T08:34:17.976Z,15.13
2019-03-22T08:36:46.410Z,13.80
2019-03-22T08:39:14.807Z,14.93
2019-03-22T08:41:43.232Z,14.87
2019-03-22T08:44:11.640Z,14.87
2019-03-22T08:46:40.041Z,14.80
2019-03-22T08:49:09.637Z,14.33
2019-03-22T08:51:38.200Z,14.67
2019-03-22T08:54:06.692Z,16.73
2019-03-22T08:56:36.235Z,13.83
2019-03-22T08:59:04.827Z,15.07
2019-03-22T09:01:33.231Z,15.03
2019-03-22T09:04:01.636Z,14.93
2019-03-22T09:06:30.183Z,15.20
2019-03-22T09:08:58.552Z,14.43
2019-03-22T09:11:27.013Z,14.13
2019-03-22T09:13:55.605Z,15.00
2019-03-22T09:16:24.102Z,14.73
2019-03-22T09:18:52.539Z,14.70
2019-03-22T09:21:20.926Z,16.90
2019-03-22T09:23:49.500Z,15.10
2019-03-22T09:26:19.988Z,14.47
2019-03-22T09:28:48.115Z,14.27
2019-03-22T09:31:16.576Z,14.50
2019-03-22T09:33:44.994Z,14.20
2019-03-22T09:36:13.539Z,14.23
2019-03-22T09:38:41.936Z,13.30
2019-03-22T09:41:12.538Z,12.30
2019-03-22T09:43:40.960Z,11.83
2019-03-22T09:46:09.443Z,13.10
2019-03-22T09:48:37.922Z,12.60
2019-03-22T09:51:06.290Z,13.40
2019-03-22T09:53:34.720Z,11.70
2019-03-22T09:56:03.251Z,12.47
2019-03-22T09:58:31.676Z,12.27
2019-03-22T10:01:00.195Z,13.13
2019-03-22T10:03:28.575Z,12.33
2019-03-22T10:05:57.009Z,12.50
2019-03-22T10:08:25.448Z,12.03
2019-03-22T10:10:53.902Z,11.40
2019-03-22T10:13:22.293Z,13.27
2019-03-22T10:15:50.814Z,13.13
2019-03-22T10:18:19.193Z,14.20
2019-03-22T10:20:47.650Z,11.70
2019-03-22T10:23:16.052Z,12.87
2019-03-22T10:25:44.588Z,10.80
2019-03-22T10:28:13.003Z,11.57
2019-03-22T10:30:41.429Z,11.40
2019-03-22T10:33:22.077Z,11.70
2019-03-22T10:35:40.067Z,11.57
2019-03-22T10:38:15.956Z,11.47
2019-03-22T10:40:38.662Z,11.87
2019-03-22T10:43:07.080Z,11.97
2019-03-22T10:45:35.553Z,12.10
2019-03-22T10:48:04.011Z,11.70
2019-03-22T10:50:32.459Z,12.43
2019-03-22T10:53:00.914Z,12.70
2019-03-22T10:55:30.702Z,10.70
2019-03-22T10:57:59.417Z,11.10
2019-03-22T11:00:28.223Z,10.70
2019-03-22T11:02:56.644Z,9.90
2019-03-22T11:05:25.093Z,10.87
2019-03-22T11:07:54.457Z,10.67
2019-03-22T11:10:22.859Z,9.53
2019-03-22T11:12:51.297Z,9.87
2019-03-22T11:15:19.705Z,9.47
2019-03-22T11:17:48.145Z,10.73
2019-03-22T11:20:17.269Z,9.10
2019-03-22T11:22:45.762Z,9.40
2019-03-22T11:25:14.293Z,10.83
2019-03-22T11:27:42.716Z,9.20
2019-03-22T11:30:14.456Z,9.23
2019-03-22T11:32:42.880Z,9.70
2019-03-22T11:35:12.326Z,9.50
2019-03-22T11:37:40.792Z,9.10
2019-03-22T11:40:11.665Z,9.43
2019-03-22T11:42:40.073Z,8.77
2019-03-22T11:45:17.429Z,7.93
2019-03-22T11:47:45.845Z,8.67
2019-03-22T11:50:14.509Z,9.30
2019-03-22T11:52:42.922Z,9.67
2019-03-22T11:55:13.275Z,9.40
2019-03-22T11:57:41.681Z,8.60
2019-03-22T12:00:16.228Z,8.77
2019-03-22T12:02:44.699Z,8.67
2019-03-22T12:05:13.979Z,8.37
2019-03-22T12:07:42.374Z,10.33
2019-03-22T12:10:13.335Z,9.47
2019-03-22T12:12:41.760Z,10.33
2019-03-22T12:15:12.725Z,9.60
2019-03-22T12:17:41.218Z,10.70
2019-03-22T12:20:15.966Z,8.27
2019-03-22T12:22:44.486Z,8.77
2019-03-22T12:25:16.098Z,8.37
2019-03-22T12:27:44.625Z,8.83
2019-03-22T12:30:17.501Z,7.73
2019-03-22T12:32:46.430Z,8.50
2019-03-22T12:35:16.868Z,8.40
2019-03-22T12:37:45.529Z,8.10
2019-03-22T12:40:22.355Z,8.37
2019-03-22T12:42:50.921Z,8.30
2019-03-22T12:45:29.940Z,7.40
2019-03-22T12:47:58.415Z,7.43
2019-03-22T12:50:27.386Z,7.80
2019-03-22T12:52:55.946Z,6.97
2019-03-22T12:55:24.503Z,7.53
2019-03-22T12:57:52.990Z,6.90
2019-03-22T13:00:27.436Z,7.13
2019-03-22T13:02:57.211Z,6.50
2019-03-22T13:05:25.763Z,8.13
2019-03-22T13:07:54.262Z,7.40
2019-03-22T13:10:27.680Z,6.77
2019-03-22T13:12:56.185Z,6.90
2019-03-22T13:15:24.694Z,6.70
2019-03-22T13:17:53.144Z,6.67
2019-03-22T13:20:21.717Z,5.60
2019-03-22T13:22:50.142Z,4.97
2019-03-22T13:25:21.020Z,6.20
2019-03-22T13:27:48.869Z,6.43
2019-03-22T13:30:35.362Z,6.13
2019-03-22T13:33:04.633Z,4.90
2019-03-22T13:35:33.065Z,5.17
2019-03-22T13:38:01.736Z,4.87
2019-03-22T13:40:30.233Z,4.20
2019-03-22T13:42:58.724Z,5.27
2019-03-22T13:45:27.198Z,4.40
2019-03-22T13:47:55.713Z,3.90
2019-03-22T13:50:24.666Z,4.07
2019-03-22T13:52:53.081Z,3.30
2019-03-22T13:55:21.578Z,3.80
2019-03-22T13:57:49.983Z,3.50
2019-03-22T14:00:19.169Z,3.30
2019-03-22T14:02:47.561Z,3.03
2019-03-22T14:05:16.033Z,3.17
2019-03-22T14:07:44.472Z,3.27
2019-03-22T14:10:21.810Z,3.40
2019-03-22T14:12:50.258Z,2.77
2019-03-22T14:15:18.643Z,2.40
2019-03-22T14:17:47.062Z,2.70
2019-03-22T14:20:15.481Z,2.57
2019-03-22T14:22:43.907Z,2.47
2019-03-22T14:25:12.382Z,2.30
2019-03-22T14:27:40.797Z,2.90
2019-03-22T14:30:09.773Z,2.10
2019-03-22T14:32:38.328Z,2.40
2019-03-22T14:35:09.503Z,2.43
2019-03-22T14:37:38.006Z,2.50
2019-03-22T14:40:07.038Z,2.20
2019-03-22T14:42:35.522Z,2.50
2019-03-22T14:45:11.315Z,2.73
2019-03-22T14:47:39.730Z,2.40
2019-03-22T14:50:08.502Z,2.10
2019-03-22T14:52:36.974Z,2.80
2019-03-22T14:55:06.825Z,2.53
2019-03-22T14:57:35.308Z,2.73
2019-03-22T15:00:08.419Z,2.17
2019-03-22T15:02:36.833Z,2.77
2019-03-22T15:05:06.710Z,2.70
2019-03-22T15:07:35.105Z,2.33
2019-03-22T15:10:04.780Z,2.70
2019-03-22T15:12:33.198Z,1.90
2019-03-22T15:15:21.449Z,1.70
2019-03-22T15:17:57.139Z,2.10
2019-03-22T15:20:30.220Z,2.10
2019-03-22T15:23:15.289Z,1.70
2019-03-22T15:25:45.365Z,2.00
2019-03-22T15:28:15.449Z,2.20
2019-03-22T15:30:45.535Z,2.30
2019-03-22T15:33:34.321Z,2.10
2019-03-22T15:35:59.628Z,2.07
2019-03-22T15:38:47.708Z,2.03
2019-03-22T15:41:16.356Z,1.70
2019-03-22T15:43:44.790Z,2.07
2019-03-22T15:46:13.265Z,1.90
2019-03-22T15:48:41.664Z,2.30
2019-03-22T15:51:10.096Z,2.13
2019-03-22T15:53:38.522Z,2.20
2019-03-22T15:56:06.948Z,2.77
2019-03-22T15:58:37.027Z,1.90
2019-03-22T16:01:05.581Z,1.70
2019-03-22T16:03:43.815Z,2.00
2019-03-22T16:06:04.197Z,1.30
2019-03-22T16:08:32.699Z,1.63
2019-03-22T16:11:01.108Z,2.00
2019-03-22T16:13:29.544Z,2.87
2019-03-22T16:15:58.040Z,1.70
2019-03-22T16:18:26.440Z,1.90
2019-03-22T16:20:59.957Z,1.60
2019-03-22T16:23:25.005Z,1.90
2019-03-22T16:25:53.427Z,1.60
2019-03-22T16:28:21.857Z,2.87
2019-03-22T16:30:50.262Z,2.33
2019-03-22T16:33:18.684Z,1.90
2019-03-22T16:35:47.118Z,2.23
2019-03-22T16:38:15.603Z,4.10
2019-03-22T16:40:44.101Z,4.47
2019-03-22T16:43:12.720Z,9.93
2019-03-22T16:45:42.659Z,3.10
2019-03-22T16:48:11.237Z,3.37
2019-03-22T16:50:39.825Z,2.40
2019-03-22T16:53:08.413Z,2.50
2019-03-22T16:55:36.924Z,3.03
2019-03-22T16:58:05.870Z,2.90
2019-03-22T17:00:34.949Z,2.90
2019-03-22T17:03:03.611Z,2.83
2019-03-22T17:05:32.039Z,2.60
2019-03-22T17:08:00.506Z,2.90
2019-03-22T17:10:29.004Z,2.60
2019-03-22T17:12:57.469Z,3.07
2019-03-22T17:15:25.921Z,3.20
2019-03-22T17:17:54.375Z,2.93
2019-03-22T17:20:22.828Z,3.10
2019-03-22T17:22:51.225Z,2.90
2019-03-22T17:25:19.651Z,3.50
2019-03-22T17:27:48.186Z,3.67
2019-03-22T17:30:18.272Z,3.93
2019-03-22T17:32:46.787Z,3.50
2019-03-22T17:35:15.333Z,10.23
2019-03-22T17:37:43.872Z,23.83
2019-03-22T17:40:12.249Z,10.27
2019-03-22T17:42:40.657Z,6.47
2019-03-22T17:45:15.640Z,4.70
2019-03-22T17:47:44.092Z,4.50
2019-03-22T17:50:13.972Z,3.53
2019-03-22T17:52:42.622Z,5.20
2019-03-22T17:55:12.099Z,4.87
2019-03-22T17:57:40.616Z,4.60
2019-03-22T18:00:12.071Z,4.43
2019-03-22T18:02:40.507Z,7.80
2019-03-22T18:05:09.738Z,7.97
2019-03-22T18:07:38.273Z,5.90
2019-03-22T18:10:11.062Z,4.60
2019-03-22T18:12:39.618Z,4.83
2019-03-22T18:15:09.979Z,5.30
2019-03-22T18:17:38.462Z,4.50
2019-03-22T18:20:09.930Z,3.50
2019-03-22T18:22:38.430Z,3.90
2019-03-22T18:25:09.143Z,3.20
2019-03-22T18:27:37.528Z,3.80
2019-03-22T18:30:08.287Z,3.33
2019-03-22T18:32:36.714Z,3.53
2019-03-22T18:35:05.783Z,3.17
2019-03-22T18:37:34.264Z,3.63
2019-03-22T18:40:02.659Z,4.03
2019-03-22T18:42:31.389Z,3.60
2019-03-22T18:44:59.861Z,3.87
2019-03-22T18:47:28.294Z,3.77
2019-03-22T18:49:56.715Z,7.50
2019-03-22T18:52:25.254Z,7.50
2019-03-22T18:54:53.663Z,5.30
2019-03-22T18:57:25.245Z,7.43
2019-03-22T18:59:53.649Z,13.10
2019-03-22T19:02:22.058Z,5.07
2019-03-22T19:04:50.459Z,4.40
2019-03-22T19:07:18.887Z,4.20
2019-03-22T19:09:47.312Z,4.70
2019-03-22T19:12:15.755Z,9.03
2019-03-22T19:14:44.467Z,6.80
2019-03-22T19:17:12.864Z,7.60
2019-03-22T19:19:41.292Z,7.47
2019-03-22T19:22:09.720Z,7.63
2019-03-22T19:24:38.130Z,5.00
2019-03-22T19:27:06.619Z,5.13
2019-03-22T19:29:35.129Z,8.27
2019-03-22T19:32:13.152Z,9.70
2019-03-22T19:34:33.849Z,6.73
2019-03-22T19:37:02.266Z,5.80
2019-03-22T19:39:30.786Z,5.37
2019-03-22T19:41:59.181Z,5.83
2019-03-22T19:44:27.720Z,5.77
2019-03-22T19:46:56.285Z,6.40
2019-03-22T19:49:24.703Z,6.00
2019-03-22T19:51:53.201Z,6.20
2019-03-22T19:54:21.614Z,6.20
2019-03-22T19:56:50.062Z,7.00
2019-03-22T19:59:18.537Z,7.37
2019-03-22T20:01:46.968Z,8.57
2019-03-22T20:04:15.379Z,10.63
2019-03-22T20:06:43.879Z,10.37
2019-03-22T20:09:12.406Z,10.40
2019-03-22T20:11:40.941Z,9.23
2019-03-22T20:14:09.417Z,10.40
2019-03-22T20:16:37.837Z,9.20
2019-03-22T20:19:06.254Z,8.33
2019-03-22T20:21:34.875Z,6.47
2019-03-22T20:24:03.285Z,6.80
2019-03-22T20:26:31.711Z,6.03
2019-03-22T20:29:00.142Z,7.90
2019-03-22T20:31:28.556Z,9.60
2019-03-22T20:33:57.036Z,8.17
2019-03-22T20:36:25.442Z,18.30
2019-03-22T20:38:53.853Z,17.93
2019-03-22T20:41:22.277Z,14.47
2019-03-22T20:43:50.700Z,9.60
2019-03-22T20:46:19.122Z,8.07
2019-03-22T20:48:47.550Z,6.20
2019-03-22T20:51:15.964Z,5.73
2019-03-22T20:53:44.473Z,5.80
2019-03-22T20:56:12.880Z,5.57
2019-03-22T20:58:41.299Z,6.70
2019-03-22T21:01:09.813Z,13.37
2019-03-22T21:03:38.222Z,16.33
2019-03-22T21:06:06.768Z,18.33
2019-03-22T21:08:35.268Z,16.00
2019-03-22T21:11:03.785Z,11.33
2019-03-22T21:13:32.155Z,7.57
2019-03-22T21:16:00.648Z,7.33
2019-03-22T21:18:29.060Z,5.80
2019-03-22T21:20:57.500Z,6.40
2019-03-22T21:23:35.759Z,4.63
2019-03-22T21:25:56.078Z,5.70
2019-03-22T21:28:24.518Z,7.37
2019-03-22T21:30:52.937Z,5.97
2019-03-22T21:33:21.347Z,5.93
2019-03-22T21:35:49.754Z,4.97
2019-03-22T21:38:18.150Z,5.03
2019-03-22T21:40:46.597Z,3.77
2019-03-22T21:43:14.997Z,5.73
2019-03-22T21:45:43.447Z,4.33
2019-03-22T21:48:11.837Z,5.70
2019-03-22T21:50:40.288Z,4.67
2019-03-22T21:53:08.702Z,4.23
2019-03-22T21:55:37.413Z,4.77
2019-03-22T21:58:05.809Z,4.40
2019-03-22T22:00:34.249Z,4.97
2019-03-22T22:03:02.674Z,4.33
2019-03-22T22:05:31.080Z,4.87
2019-03-22T22:07:59.522Z,4.10
2019-03-22T22:10:27.919Z,4.40
2019-03-22T22:12:56.372Z,4.60
2019-03-22T22:15:24.810Z,4.37
2019-03-22T22:17:53.185Z,4.27
2019-03-22T22:20:28.927Z,4.57
2019-03-22T22:22:51.828Z,6.17
2019-03-22T22:25:20.233Z,4.77
2019-03-22T22:27:48.644Z,5.43
2019-03-22T22:30:17.147Z,5.57
2019-03-22T22:32:45.569Z,5.27
2019-03-22T22:35:14.648Z,5.73
2019-03-22T22:37:43.141Z,5.10
2019-03-22T22:40:12.894Z,4.60
2019-03-22T22:42:41.373Z,4.40
2019-03-22T22:45:13.116Z,4.60
2019-03-22T22:47:41.560Z,4.70
2019-03-22T22:50:13.131Z,7.43
2019-03-22T22:52:41.536Z,5.80
2019-03-22T22:55:10.408Z,4.70
2019-03-22T22:57:38.824Z,5.03
2019-03-22T23:00:10.269Z,4.47
2019-03-22T23:02:38.689Z,4.47
2019-03-22T23:05:07.167Z,4.67
2019-03-22T23:07:35.700Z,4.80
2019-03-22T23:10:05.867Z,4.60
2019-03-22T23:12:34.456Z,4.40
2019-03-22T23:15:03.151Z,4.63
2019-03-22T23:17:31.535Z,3.80
2019-03-22T23:19:59.967Z,4.60
2019-03-22T23:22:28.383Z,4.43
2019-03-22T23:24:56.853Z,4.40
2019-03-22T23:27:25.342Z,4.50
2019-03-22T23:29:53.736Z,4.80
2019-03-22T23:32:22.174Z,4.17
2019-03-22T23:34:58.679Z,4.30
2019-03-22T23:37:20.732Z,5.63
2019-03-22T23:39:49.176Z,5.13
2019-03-22T23:42:17.572Z,5.70
2019-03-22T23:44:45.995Z,5.00
2019-03-22T23:47:14.474Z,4.47
2019-03-22T23:49:42.944Z,4.30
2019-03-22T23:52:11.355Z,4.53
2019-03-22T23:54:39.779Z,4.70
2019-03-22T23:57:08.266Z,5.10
2019-03-22T23:59:36.696Z,4.80
